Time;durP1;ratioP1;P1;durP2;ratioP2;P2;SDS_P1;SDS_P2;PMS_P1;PMS_P2;Temp;Humidity;BMP_temperature;BMP_pressure;BME280_temperature;BME280_humidity;BME280_pressure;Samples;Min_cycle;Max_cycle;Signal;HPM_P1;HPM_P2
2023/01/19 00:02:05;;;;;;;3.63;2.42;;;22.40;76.60;;;;;;6220877;28;89130;-72
2023/01/19 00:05:08;;;;;;;3.35;2.40;;;22.40;76.50;;;;;;6220809;28;89159;-73
2023/01/19 00:08:19;;;;;;;2.97;2.30;;;22.40;76.60;;;;;;6209095;28;89008;-72
2023/01/19 00:11:23;;;;;;;3.65;2.33;;;22.40;76.50;;;;;;6228150;28;89118;-72
2023/01/19 00:14:25;;;;;;;3.80;2.58;;;22.40;76.50;;;;;;6217126;28;89146;-72
2023/01/19 00:17:28;;;;;;;3.97;2.45;;;22.40;76.40;;;;;;6218785;28;89069;-72
2023/01/19 00:20:31;;;;;;;3.67;2.53;;;22.30;76.40;;;;;;6233795;28;88324;-70
2023/01/19 00:23:33;;;;;;;3.65;2.40;;;22.40;76.40;;;;;;6221479;28;89095;-72
2023/01/19 00:26:39;;;;;;;3.78;2.50;;;22.30;76.40;;;;;;6219979;28;89137;-72
2023/01/19 00:29:41;;;;;;;4.72;2.28;;;22.40;76.40;;;;;;6225179;28;90024;-72
2023/01/19 00:32:43;;;;;;;3.55;2.42;;;22.30;76.40;;;;;;6223349;28;89387;-73
2023/01/19 00:35:50;;;;;;;2.78;2.35;;;22.30;76.40;;;;;;6209402;28;89223;-72
2023/01/19 00:38:52;;;;;;;2.95;2.30;;;22.30;76.40;;;;;;6209791;28;88981;-73
2023/01/19 00:45:19;;;;;;;3.47;2.45;;;22.30;76.30;;;;;;6185173;28;88547;-72
2023/01/19 00:48:21;;;;;;;3.55;2.58;;;22.30;76.30;;;;;;6229314;28;89042;-72
2023/01/19 00:51:24;;;;;;;4.05;2.45;;;22.30;76.20;;;;;;6212216;28;88397;-72
2023/01/19 00:54:26;;;;;;;3.10;1.95;;;22.30;76.20;;;;;;6228290;28;89077;-73
2023/01/19 00:57:29;;;;;;;3.25;2.30;;;22.20;76.20;;;;;;6220753;28;89106;-72
2023/01/19 01:00:31;;;;;;;3.35;2.08;;;22.20;76.10;;;;;;6222118;28;90267;-72
2023/01/19 01:03:33;;;;;;;2.20;1.90;;;22.20;76.10;;;;;;6221543;28;89020;-72
2023/01/19 01:06:35;;;;;;;2.92;2.17;;;22.20;76.10;;;;;;6214272;28;89147;-71
2023/01/19 01:09:37;;;;;;;2.80;2.10;;;22.20;76.10;;;;;;6231629;28;89125;-72
2023/01/19 01:12:41;;;;;;;2.40;2.20;;;22.20;76.00;;;;;;6216645;28;89053;-72
2023/01/19 01:15:43;;;;;;;3.10;2.05;;;22.20;76.10;;;;;;6208572;28;89284;-72
2023/01/19 01:18:45;;;;;;;2.35;1.90;;;22.20;76.10;;;;;;6220340;28;88248;-72
2023/01/19 01:21:47;;;;;;;2.25;2.05;;;22.20;76.10;;;;;;6220865;28;88452;-72
2023/01/19 01:24:49;;;;;;;2.88;2.03;;;22.20;75.90;;;;;;6228788;28;88816;-73
2023/01/19 01:27:54;;;;;;;2.97;2.33;;;22.20;75.90;;;;;;6229671;28;89002;-72
2023/01/19 01:30:56;;;;;;;2.22;2.00;;;22.20;75.90;;;;;;6228314;28;90013;-73
2023/01/19 01:33:58;;;;;;;2.70;1.92;;;22.10;75.80;;;;;;6229644;28;89313;-72
2023/01/19 01:37:01;;;;;;;3.15;2.05;;;22.10;75.80;;;;;;6231266;28;88959;-72
2023/01/19 01:40:04;;;;;;;2.78;2.05;;;22.10;75.70;;;;;;6230088;28;89156;-72
2023/01/19 01:43:11;;;;;;;3.47;2.20;;;22.10;75.70;;;;;;6207007;28;89226;-72
2023/01/19 01:46:15;;;;;;;2.80;2.00;;;22.10;75.70;;;;;;6219673;28;89310;-72
2023/01/19 01:49:18;;;;;;;2.75;2.10;;;22.10;75.70;;;;;;6218663;28;89252;-72
2023/01/19 01:52:22;;;;;;;2.40;2.05;;;22.00;75.60;;;;;;6226584;28;88328;-72
2023/01/19 01:55:26;;;;;;;3.70;2.10;;;22.00;75.60;;;;;;6220225;28;88980;-72
2023/01/19 01:58:31;;;;;;;2.30;2.10;;;22.10;75.70;;;;;;6224793;28;89001;-73
2023/01/19 02:05:03;;;;;;;2.72;2.25;;;22.00;75.50;;;;;;6206841;28;87853;-72
2023/01/19 02:14:54;;;;;;;2.63;2.30;;;22.00;75.60;;;;;;6227865;28;87400;-71
2023/01/19 02:17:57;;;;;;;2.63;2.30;;;22.00;75.60;;;;;;6225226;28;88985;-72
2023/01/19 02:21:08;;;;;;;3.17;2.60;;;22.00;75.60;;;;;;6206539;28;89088;-72
2023/01/19 02:24:12;;;;;;;2.95;2.42;;;22.00;75.60;;;;;;6224283;28;88309;-73
2023/01/19 02:27:14;;;;;;;3.63;2.50;;;22.00;75.60;;;;;;6222739;28;87951;-72
2023/01/19 02:30:17;;;;;;;2.75;2.45;;;21.90;75.60;;;;;;6221192;28;89088;-72
2023/01/19 02:33:19;;;;;;;3.60;2.53;;;21.90;75.60;;;;;;6233342;28;90456;-71
2023/01/19 02:36:28;;;;;;;2.85;2.50;;;21.90;75.50;;;;;;6228510;28;89194;-72
2023/01/19 02:39:35;;;;;;;4.18;2.83;;;21.90;75.50;;;;;;6235025;28;89400;-72
2023/01/19 02:42:39;;;;;;;3.00;2.70;;;21.90;75.50;;;;;;6233883;28;89000;-72
2023/01/19 02:45:43;;;;;;;3.58;2.55;;;21.90;75.50;;;;;;6229358;28;89432;-71
2023/01/19 02:48:45;;;;;;;4.35;3.00;;;21.90;75.40;;;;;;6227233;28;89153;-71
2023/01/19 02:51:47;;;;;;;3.30;3.00;;;21.90;75.40;;;;;;6233410;28;89061;-72
2023/01/19 02:55:00;;;;;;;3.15;2.85;;;21.90;75.50;;;;;;6231820;28;88355;-72
2023/01/19 02:58:09;;;;;;;3.40;3.10;;;21.80;75.40;;;;;;6233868;28;88971;-72
2023/01/19 03:01:19;;;;;;;3.38;2.97;;;21.90;75.40;;;;;;6225076;28;89089;-72
2023/01/19 03:04:30;;;;;;;3.60;3.05;;;21.80;75.50;;;;;;6229253;28;88861;-72
2023/01/19 03:07:44;;;;;;;3.40;2.92;;;21.80;75.40;;;;;;6230256;28;89102;-71
2023/01/19 03:10:57;;;;;;;3.50;3.10;;;21.80;75.30;;;;;;6223035;28;89315;-72
2023/01/19 03:14:03;;;;;;;3.30;3.00;;;21.80;75.20;;;;;;6217673;28;89111;-72
2023/01/19 03:17:08;;;;;;;3.67;2.92;;;21.80;75.20;;;;;;6233087;28;88978;-72
2023/01/19 03:20:14;;;;;;;3.92;3.22;;;21.80;75.20;;;;;;6225162;28;89152;-72
2023/01/19 03:23:17;;;;;;;3.30;3.00;;;21.80;75.30;;;;;;6223300;28;87959;-71
2023/01/19 03:26:25;;;;;;;3.40;3.08;;;21.80;76.20;;;;;;6232122;28;88398;-72
2023/01/19 03:29:33;;;;;;;4.97;3.33;;;21.80;75.20;;;;;;6232462;28;89342;-72
2023/01/19 03:32:39;;;;;;;3.33;3.03;;;21.80;75.20;;;;;;6230438;28;89456;-72
2023/01/19 03:35:47;;;;;;;3.60;3.30;;;21.80;75.20;;;;;;6221901;28;89993;-72
2023/01/19 03:38:50;;;;;;;3.28;2.97;;;21.70;75.20;;;;;;6221532;28;89025;-72
2023/01/19 03:41:57;;;;;;;3.60;3.30;;;21.80;75.30;;;;;;6229101;28;89381;-72
2023/01/19 03:45:01;;;;;;;3.28;2.97;;;21.70;75.20;;;;;;6221606;28;90717;-72
2023/01/19 03:48:05;;;;;;;3.85;3.00;;;21.70;75.20;;;;;;6229679;28;88015;-73
2023/01/19 03:51:09;;;;;;;3.63;3.33;;;21.70;75.20;;;;;;6233481;28;88949;-72
2023/01/19 03:54:11;;;;;;;3.80;3.40;;;21.70;75.20;;;;;;6226569;28;87997;-72
2023/01/19 03:57:14;;;;;;;3.60;3.30;;;21.70;75.20;;;;;;6211345;28;88501;-71
2023/01/19 04:00:17;;;;;;;3.63;3.10;;;21.70;75.20;;;;;;6226806;28;89061;-71
2023/01/19 04:03:19;;;;;;;3.25;2.95;;;21.70;75.20;;;;;;6225013;28;87812;-71
2023/01/19 04:06:21;;;;;;;3.20;2.90;;;21.70;75.20;;;;;;6226090;28;90093;-72
2023/01/19 04:09:24;;;;;;;3.63;3.33;;;21.70;75.10;;;;;;6231763;28;89307;-72
2023/01/19 04:12:27;;;;;;;3.70;3.33;;;21.70;75.20;;;;;;6217398;28;87832;-71
2023/01/19 04:15:30;;;;;;;3.65;3.35;;;21.60;75.10;;;;;;6210951;28;89431;-72
2023/01/19 04:18:34;;;;;;;3.42;3.13;;;21.60;75.00;;;;;;6219741;28;89155;-71
2023/01/19 04:21:36;;;;;;;4.03;3.40;;;21.60;74.90;;;;;;6229714;28;89254;-72
2023/01/19 04:24:38;;;;;;;3.75;3.35;;;21.60;74.90;;;;;;6231997;28;89048;-73
2023/01/19 04:27:42;;;;;;;3.55;3.25;;;21.60;74.70;;;;;;6221673;28;88744;-72
2023/01/19 04:30:44;;;;;;;3.90;3.50;;;21.60;74.70;;;;;;6210448;28;89066;-73
2023/01/19 04:33:46;;;;;;;3.50;3.20;;;21.70;74.50;;;;;;6226517;28;88975;-72
2023/01/19 04:36:49;;;;;;;3.40;3.08;;;21.70;74.50;;;;;;6221043;28;89998;-72
2023/01/19 04:39:51;;;;;;;3.78;3.40;;;21.70;74.50;;;;;;6229621;28;88001;-73
2023/01/19 04:42:55;;;;;;;3.80;3.40;;;21.70;74.50;;;;;;6222230;28;89068;-73
2023/01/19 04:45:57;;;;;;;4.10;3.70;;;21.70;74.40;;;;;;6215779;28;89271;-72
2023/01/19 04:48:59;;;;;;;4.60;4.20;;;21.70;74.40;;;;;;6220150;28;89123;-72
2023/01/19 04:52:01;;;;;;;4.05;3.67;;;21.70;74.30;;;;;;6231599;28;89146;-73
2023/01/19 04:55:04;;;;;;;4.38;3.90;;;21.70;74.20;;;;;;6227424;28;89259;-73
2023/01/19 04:58:08;;;;;;;4.20;3.80;;;21.70;74.10;;;;;;6219086;28;88445;-72
2023/01/19 05:01:10;;;;;;;4.47;4.07;;;21.80;74.10;;;;;;6230571;28;89132;-73
2023/01/19 05:04:12;;;;;;;4.88;4.38;;;21.80;74.00;;;;;;6230780;28;89434;-72
2023/01/19 05:07:14;;;;;;;5.28;4.78;;;21.80;74.00;;;;;;6230404;28;89987;-73
2023/01/19 05:10:17;;;;;;;4.63;4.22;;;21.80;73.90;;;;;;6232500;28;89335;-72
2023/01/19 05:13:20;;;;;;;4.70;4.30;;;21.80;73.90;;;;;;6221735;28;89125;-71
2023/01/19 05:16:22;;;;;;;5.43;4.93;;;21.80;73.80;;;;;;6217531;28;89303;-73
2023/01/19 05:19:24;;;;;;;5.13;4.45;;;21.90;73.80;;;;;;6231291;28;89342;-73
2023/01/19 05:22:26;;;;;;;5.15;4.68;;;21.90;73.80;;;;;;6224735;28;88845;-72
2023/01/19 05:25:28;;;;;;;5.25;4.75;;;21.90;73.90;;;;;;6224249;28;89110;-73
2023/01/19 05:28:32;;;;;;;5.47;4.97;;;21.90;73.80;;;;;;6227517;28;89157;-70
2023/01/19 05:31:34;;;;;;;6.03;5.43;;;21.90;73.80;;;;;;6221550;28;88034;-73
2023/01/19 05:34:36;;;;;;;5.20;4.70;;;22.00;73.70;;;;;;6229986;28;89055;-72
2023/01/19 05:37:39;;;;;;;5.63;5.13;;;22.00;73.60;;;;;;6230163;28;90061;-72
2023/01/19 05:40:41;;;;;;;5.93;5.32;;;22.00;73.60;;;;;;6227357;28;89242;-72
2023/01/19 05:43:44;;;;;;;6.30;5.70;;;22.00;73.70;;;;;;6218837;28;89108;-72
2023/01/19 05:46:46;;;;;;;5.88;5.38;;;22.00;73.70;;;;;;6220625;28;89530;-72
2023/01/19 05:49:48;;;;;;;6.50;5.90;;;22.00;73.70;;;;;;6221821;28;89575;-71
2023/01/19 05:52:52;;;;;;;6.13;5.53;;;22.00;73.70;;;;;;6226185;28;89197;-72
2023/01/19 05:55:58;;;;;;;5.80;5.30;;;22.10;73.70;;;;;;6223201;28;88271;-72
2023/01/19 05:59:02;;;;;;;6.50;5.90;;;22.00;73.70;;;;;;6214474;28;88287;-72
2023/01/19 06:02:04;;;;;;;6.15;5.55;;;22.00;73.70;;;;;;6229378;28;89539;-74
2023/01/19 06:05:06;;;;;;;6.55;5.95;;;22.10;76.20;;;;;;6223366;28;88755;-69
2023/01/19 06:08:08;;;;;;;6.35;5.75;;;22.20;75.40;;;;;;6225844;28;90404;-70
2023/01/19 06:11:11;;;;;;;7.35;6.13;;;22.20;74.80;;;;;;6228214;28;89039;-71
2023/01/19 06:14:15;;;;;;;6.57;5.97;;;22.30;74.70;;;;;;6228551;28;89292;-70
2023/01/19 06:17:17;;;;;;;6.95;6.25;;;22.30;74.50;;;;;;6227090;28;88133;-70
2023/01/19 06:20:19;;;;;;;6.47;5.85;;;22.30;74.40;;;;;;6228642;28;89105;-70
2023/01/19 06:23:21;;;;;;;6.75;6.00;;;22.40;74.40;;;;;;6230443;28;88998;-70
2023/01/19 06:26:23;;;;;;;6.75;6.15;;;22.40;74.40;;;;;;6224984;28;89390;-73
2023/01/19 06:30:05;;;;;;;6.75;6.07;;;22.40;74.40;;;;;;6225922;28;88436;-74
2023/01/19 06:33:07;;;;;;;6.32;5.72;;;22.40;74.40;;;;;;6228825;28;89297;-73
2023/01/19 06:36:09;;;;;;;6.78;5.97;;;22.40;74.30;;;;;;6228486;28;89279;-73
2023/01/19 06:39:12;;;;;;;6.88;6.28;;;22.30;74.20;;;;;;6218272;28;89946;-74
2023/01/19 06:42:14;;;;;;;6.72;6.10;;;22.40;74.30;;;;;;6216327;28;89317;-73
2023/01/19 06:45:17;;;;;;;6.57;5.97;;;22.40;74.30;;;;;;6219472;28;89042;-73
2023/01/19 06:48:19;;;;;;;6.30;5.70;;;22.40;74.30;;;;;;6220727;28;89060;-73
2023/01/19 06:51:22;;;;;;;7.25;5.95;;;22.40;74.40;;;;;;6212900;28;89120;-73
2023/01/19 06:54:24;;;;;;;6.63;5.95;;;22.40;74.30;;;;;;6214241;28;89352;-73
2023/01/19 06:57:26;;;;;;;6.22;5.63;;;22.40;74.30;;;;;;6230217;28;89091;-73
2023/01/19 07:00:29;;;;;;;6.75;6.10;;;22.40;74.40;;;;;;6229857;28;88372;-73
2023/01/19 07:03:32;;;;;;;6.32;5.72;;;22.40;74.30;;;;;;6219440;28;89132;-72
2023/01/19 07:06:34;;;;;;;6.13;5.53;;;22.40;74.40;;;;;;6225248;28;89277;-73
2023/01/19 07:09:36;;;;;;;6.32;5.72;;;22.40;74.30;;;;;;6227812;28;90204;-73
2023/01/19 07:12:38;;;;;;;6.10;5.50;;;22.40;74.20;;;;;;6209739;28;89012;-73
2023/01/19 07:15:42;;;;;;;6.25;5.65;;;22.30;74.10;;;;;;6224340;28;89291;-73
2023/01/19 07:18:44;;;;;;;6.20;5.30;;;22.40;74.20;;;;;;6221819;28;89080;-73
2023/01/19 07:21:46;;;;;;;6.22;5.63;;;22.40;74.20;;;;;;6228597;28;89424;-73
2023/01/19 07:24:48;;;;;;;6.10;5.50;;;22.40;74.20;;;;;;6232030;28;89230;-74
2023/01/19 07:27:50;;;;;;;5.85;5.25;;;22.40;74.20;;;;;;6232243;28;89023;-72
2023/01/19 07:30:54;;;;;;;6.25;5.65;;;22.40;74.20;;;;;;6228835;28;88114;-73
2023/01/19 07:33:56;;;;;;;6.28;5.68;;;22.50;74.30;;;;;;6232239;28;89122;-72
2023/01/19 07:36:58;;;;;;;6.00;5.40;;;22.40;74.30;;;;;;6223612;28;88195;-71
2023/01/19 07:40:00;;;;;;;5.97;5.38;;;22.50;74.40;;;;;;6231507;28;90100;-73
2023/01/19 07:43:02;;;;;;;5.88;5.32;;;22.40;74.40;;;;;;6226143;28;89053;-73
2023/01/19 07:46:07;;;;;;;5.97;5.10;;;22.50;74.50;;;;;;6232329;28;89169;-73
2023/01/19 07:49:10;;;;;;;6.07;5.47;;;22.50;74.50;;;;;;6220112;28;87941;-73
2023/01/19 07:52:12;;;;;;;6.07;5.18;;;22.50;74.50;;;;;;6228961;28;89263;-73
2023/01/19 07:55:14;;;;;;;6.07;5.15;;;22.50;74.60;;;;;;6226348;28;89284;-73
2023/01/19 07:58:22;;;;;;;7.30;5.32;;;22.50;74.60;;;;;;6233031;28;89046;-72
2023/01/19 08:01:30;;;;;;;5.97;5.38;;;22.50;74.80;;;;;;6231238;28;88367;-73
2023/01/19 08:04:32;;;;;;;6.13;4.68;;;22.50;74.90;;;;;;6232703;28;89181;-73
2023/01/19 08:07:34;;;;;;;6.43;4.90;;;22.50;74.90;;;;;;6233224;28;89160;-72
2023/01/19 08:10:36;;;;;;;5.10;4.60;;;22.40;74.60;;;;;;6232325;28;93170;-73
2023/01/19 08:13:38;;;;;;;5.55;4.90;;;22.50;74.70;;;;;;6225718;28;88944;-74
2023/01/19 08:16:42;;;;;;;5.28;4.43;;;22.40;74.80;;;;;;6225980;28;87752;-73
2023/01/19 08:19:44;;;;;;;6.13;4.68;;;22.40;74.90;;;;;;6225008;28;89128;-74
2023/01/19 08:22:47;;;;;;;4.90;4.40;;;22.40;74.90;;;;;;6230536;28;89194;-73
2023/01/19 08:25:50;;;;;;;5.90;4.78;;;22.40;75.00;;;;;;6234092;28;87993;-71
2023/01/19 08:28:52;;;;;;;5.15;4.65;;;22.40;75.00;;;;;;6229478;28;88962;-73
2023/01/19 08:31:57;;;;;;;5.57;4.80;;;22.40;75.10;;;;;;6231507;28;87204;-73
2023/01/19 08:34:59;;;;;;;5.22;4.72;;;22.40;75.10;;;;;;6219031;28;89013;-73
2023/01/19 08:38:01;;;;;;;6.03;5.25;;;22.40;75.20;;;;;;6218590;28;89091;-73
2023/01/19 08:41:03;;;;;;;5.22;4.70;;;22.30;75.20;;;;;;6238036;28;90016;-73
2023/01/19 08:44:05;;;;;;;6.63;4.95;;;22.30;75.20;;;;;;6231939;28;88941;-73
2023/01/19 08:47:09;;;;;;;5.28;4.38;;;22.30;75.20;;;;;;6232598;28;89069;-73
2023/01/19 08:50:12;;;;;;;6.38;4.82;;;22.30;75.20;;;;;;6232841;28;89067;-73
2023/01/19 08:53:14;;;;;;;5.10;4.60;;;22.30;75.20;;;;;;6225868;28;89321;-74
2023/01/19 08:56:16;;;;;;;5.25;4.75;;;22.30;75.20;;;;;;6224058;28;89058;-72
2023/01/19 08:59:20;;;;;;;4.63;4.22;;;22.40;75.30;;;;;;6210299;28;89298;-73
2023/01/19 09:02:23;;;;;;;4.70;4.30;;;22.30;75.20;;;;;;6231380;28;88353;-73
2023/01/19 09:05:25;;;;;;;4.78;4.32;;;22.30;75.20;;;;;;6219126;28;89139;-73
2023/01/19 09:08:27;;;;;;;5.07;4.57;;;22.30;75.20;;;;;;6218493;28;89342;-73
2023/01/19 09:11:30;;;;;;;4.60;4.20;;;22.40;75.20;;;;;;6207062;28;90120;-73
2023/01/19 09:14:32;;;;;;;5.90;4.13;;;22.40;75.20;;;;;;6213799;28;89439;-73
2023/01/19 09:17:35;;;;;;;4.57;4.00;;;22.40;75.10;;;;;;6226183;28;89086;-72
2023/01/19 09:20:37;;;;;;;4.65;3.80;;;22.40;75.00;;;;;;6223161;28;88957;-72
2023/01/19 09:23:40;;;;;;;4.85;4.20;;;22.40;75.10;;;;;;6230908;28;89420;-74
2023/01/19 09:26:42;;;;;;;4.72;4.22;;;22.40;75.00;;;;;;6230252;28;89036;-73
2023/01/19 09:29:51;;;;;;;4.60;4.10;;;22.40;75.00;;;;;;6231471;28;89219;-74
2023/01/19 09:32:54;;;;;;;5.13;4.10;;;22.40;75.00;;;;;;6220167;28;88565;-73
2023/01/19 09:35:56;;;;;;;5.38;3.80;;;22.40;75.00;;;;;;6221219;28;89081;-73
2023/01/19 09:38:58;;;;;;;4.72;4.00;;;22.40;74.90;;;;;;6220987;28;89183;-74
2023/01/19 09:42:13;;;;;;;4.60;3.65;;;22.40;74.90;;;;;;6223712;28;90471;-73
2023/01/19 09:45:19;;;;;;;4.78;4.18;;;22.50;75.00;;;;;;6223483;28;89143;-73
2023/01/19 09:48:33;;;;;;;4.00;3.67;;;22.40;74.90;;;;;;6231137;28;89234;-73
2023/01/19 09:51:38;;;;;;;4.82;4.00;;;22.50;74.90;;;;;;6225478;28;88492;-73
2023/01/19 09:54:47;;;;;;;4.15;3.50;;;22.40;74.90;;;;;;6214911;28;89033;-73
2023/01/19 09:57:49;;;;;;;4.03;3.60;;;22.50;74.90;;;;;;6222955;28;89004;-73
2023/01/19 10:00:55;;;;;;;4.80;3.80;;;22.50;74.90;;;;;;6227543;28;88356;-74
2023/01/19 10:04:25;;;;;;;3.53;3.22;;;22.50;74.80;;;;;;6206699;28;87535;-73
2023/01/19 10:07:40;;;;;;;3.92;3.50;;;22.50;74.80;;;;;;6206748;28;89010;-74
2023/01/19 10:10:47;;;;;;;4.38;3.40;;;22.50;74.70;;;;;;6216869;28;89092;-73
2023/01/19 10:13:51;;;;;;;3.67;3.38;;;22.50;74.70;;;;;;6230427;28;90039;-73
2023/01/19 10:17:00;;;;;;;3.53;3.22;;;22.50;74.70;;;;;;6231790;28;89128;-74
2023/01/19 10:20:13;;;;;;;3.83;3.45;;;22.50;74.60;;;;;;6207704;28;89030;-74
2023/01/19 10:23:28;;;;;;;3.88;3.45;;;22.60;74.70;;;;;;6219094;28;88013;-73
2023/01/19 10:26:35;;;;;;;3.92;3.45;;;22.50;74.60;;;;;;6217590;28;89208;-73
2023/01/19 10:29:37;;;;;;;3.30;3.00;;;22.50;74.50;;;;;;6230119;28;88393;-73
2023/01/19 10:32:40;;;;;;;3.33;3.03;;;22.50;74.50;;;;;;6215071;28;88173;-73
2023/01/19 10:35:43;;;;;;;3.60;3.30;;;22.50;74.50;;;;;;6227066;28;88540;-73
2023/01/19 10:38:46;;;;;;;3.85;3.22;;;22.50;74.50;;;;;;6228345;28;89042;-73
2023/01/19 10:41:51;;;;;;;3.45;3.15;;;22.50;74.40;;;;;;6223608;28;89145;-74
2023/01/19 10:44:53;;;;;;;4.03;3.30;;;22.50;74.50;;;;;;6223120;28;90138;-72
2023/01/19 10:47:59;;;;;;;3.60;3.30;;;22.50;74.40;;;;;;6222726;28;89161;-73
2023/01/19 10:51:04;;;;;;;3.40;3.10;;;22.50;74.40;;;;;;6228458;28;89104;-72
2023/01/19 10:54:12;;;;;;;3.33;3.03;;;22.60;74.40;;;;;;6230073;28;89058;-73
2023/01/19 10:57:26;;;;;;;3.40;3.10;;;22.60;74.40;;;;;;6209826;28;89150;-73
2023/01/19 11:00:36;;;;;;;2.97;2.70;;;22.60;74.40;;;;;;6221749;28;88910;-74
2023/01/19 11:03:38;;;;;;;3.28;2.97;;;22.60;74.30;;;;;;6221592;28;89191;-73
2023/01/19 11:06:42;;;;;;;2.75;2.55;;;22.60;74.20;;;;;;6233187;28;88379;-74
2023/01/19 11:09:44;;;;;;;3.30;3.00;;;22.60;74.30;;;;;;6225190;28;89196;-74
2023/01/19 11:12:55;;;;;;;3.30;3.00;;;22.60;74.20;;;;;;6222922;28;89133;-72
2023/01/19 11:16:03;;;;;;;3.13;2.83;;;22.60;74.20;;;;;;6210036;28;90104;-73
2023/01/19 11:19:06;;;;;;;2.95;2.75;;;22.60;74.20;;;;;;6227270;28;89107;-73
2023/01/19 11:22:20;;;;;;;2.80;2.60;;;22.60;74.20;;;;;;6229985;28;89385;-74
2023/01/19 11:25:28;;;;;;;3.30;2.78;;;22.60;74.20;;;;;;6209888;28;89193;-73
2023/01/19 11:28:34;;;;;;;2.95;2.70;;;22.60;74.10;;;;;;6225547;28;89197;-72
2023/01/19 11:31:36;;;;;;;3.05;2.80;;;22.60;74.00;;;;;;6232859;28;89065;-74
2023/01/19 11:34:39;;;;;;;3.10;2.80;;;22.60;74.10;;;;;;6226895;28;89071;-73
2023/01/19 11:37:42;;;;;;;2.70;2.50;;;22.60;74.00;;;;;;6227938;28;88389;-73
2023/01/19 11:40:52;;;;;;;2.70;2.50;;;22.60;74.00;;;;;;6215091;28;88045;-74
2023/01/19 11:43:57;;;;;;;2.67;2.47;;;22.60;74.00;;;;;;6224007;28;87944;-73
2023/01/19 11:47:00;;;;;;;2.67;2.47;;;22.60;74.00;;;;;;6233736;28;90192;-71
2023/01/19 11:50:06;;;;;;;3.00;2.70;;;22.60;74.00;;;;;;6232686;28;89507;-73
2023/01/19 11:53:18;;;;;;;3.05;2.80;;;22.60;74.00;;;;;;6230025;28;89017;-73
2023/01/19 11:56:23;;;;;;;3.00;2.70;;;22.60;74.00;;;;;;6227593;28;89043;-73
2023/01/19 11:59:25;;;;;;;2.42;2.22;;;22.60;73.90;;;;;;6223933;28;89037;-73
2023/01/19 12:02:31;;;;;;;2.90;2.60;;;22.60;73.90;;;;;;6231238;28;87900;-72
2023/01/19 12:05:36;;;;;;;3.00;2.70;;;22.60;73.80;;;;;;6220183;28;89176;-73
2023/01/19 12:08:44;;;;;;;2.65;2.45;;;22.60;73.80;;;;;;6233278;28;88540;-72
2023/01/19 12:11:50;;;;;;;2.30;2.10;;;22.70;73.80;;;;;;6221062;28;89138;-72
2023/01/19 12:14:57;;;;;;;2.60;2.40;;;22.60;73.70;;;;;;6208224;28;89083;-73
2023/01/19 12:18:01;;;;;;;2.92;2.60;;;22.60;73.70;;;;;;6229969;28;90072;-73
2023/01/19 12:21:03;;;;;;;2.85;2.60;;;22.70;73.80;;;;;;6219056;28;89060;-73
2023/01/19 12:24:16;;;;;;;2.67;2.47;;;22.60;73.70;;;;;;6232138;28;89004;-73
2023/01/19 12:27:39;;;;;;;2.42;2.22;;;22.60;73.70;;;;;;6219327;28;89071;-72
2023/01/19 12:30:41;;;;;;;2.90;2.58;;;22.70;73.70;;;;;;6219120;28;89103;-74
2023/01/19 12:33:43;;;;;;;2.55;2.35;;;22.70;73.70;;;;;;6226744;28;89086;-73
2023/01/19 12:36:45;;;;;;;2.60;2.40;;;22.60;73.70;;;;;;6224816;28;89170;-73
2023/01/19 12:39:49;;;;;;;2.50;2.30;;;22.60;73.70;;;;;;6229254;28;88314;-73
2023/01/19 12:43:00;;;;;;;3.15;2.17;;;22.60;73.60;;;;;;6221799;28;89376;-72
2023/01/19 12:46:02;;;;;;;2.42;2.22;;;22.70;73.70;;;;;;6222437;28;88977;-72
2023/01/19 12:49:06;;;;;;;2.53;2.33;;;22.70;73.60;;;;;;6208683;28;90006;-73
2023/01/19 12:52:24;;;;;;;2.22;2.03;;;22.70;73.60;;;;;;6217862;28;89313;-73
2023/01/19 12:55:30;;;;;;;2.47;2.28;;;22.70;73.60;;;;;;6230219;28;87947;-73
2023/01/19 12:58:33;;;;;;;2.40;2.20;;;22.70;73.60;;;;;;6223255;28;89559;-73
2023/01/19 13:01:35;;;;;;;2.28;2.08;;;22.70;73.60;;;;;;6232247;28;89123;-73
2023/01/19 13:04:37;;;;;;;2.35;2.15;;;22.60;73.50;;;;;;6230141;28;89111;-72
2023/01/19 13:08:17;;;;;;;2.40;2.20;;;22.70;73.50;;;;;;6231639;28;89168;-71
2023/01/19 13:11:21;;;;;;;2.30;2.10;;;22.70;73.50;;;;;;6224333;28;88346;-73
2023/01/19 13:14:38;;;;;;;2.15;1.95;;;22.70;73.50;;;;;;6213821;28;87902;-73
2023/01/19 13:17:50;;;;;;;2.20;2.00;;;22.70;73.50;;;;;;6223558;28;89126;-74
2023/01/19 13:20:57;;;;;;;2.20;2.00;;;22.70;73.40;;;;;;6225696;28;90043;-73
2023/01/19 13:24:01;;;;;;;1.92;1.73;;;22.70;73.40;;;;;;6230927;28;89054;-72
2023/01/19 13:27:04;;;;;;;2.20;2.00;;;22.70;73.30;;;;;;6230871;28;89136;-73
2023/01/19 13:30:12;;;;;;;1.98;1.85;;;22.70;73.40;;;;;;6227307;28;89128;-73
2023/01/19 13:33:20;;;;;;;2.40;2.10;;;22.70;73.30;;;;;;6222737;28;89153;-74
2023/01/19 13:36:27;;;;;;;2.05;1.85;;;22.70;73.40;;;;;;6222366;28;89037;-73
2023/01/19 13:39:35;;;;;;;2.05;1.90;;;22.70;73.30;;;;;;6218933;28;89214;-73
2023/01/19 13:42:40;;;;;;;2.25;2.05;;;22.70;73.30;;;;;;6222476;28;87088;-73
2023/01/19 13:45:48;;;;;;;2.33;1.88;;;22.70;73.30;;;;;;6216822;28;89073;-72
2023/01/19 13:48:56;;;;;;;2.30;2.10;;;22.70;73.30;;;;;;6230114;28;89142;-73
2023/01/19 13:52:12;;;;;;;2.45;2.13;;;22.70;73.30;;;;;;6227055;28;90039;-73
2023/01/19 13:55:15;;;;;;;2.35;2.15;;;22.70;73.20;;;;;;6221064;28;89274;-74
2023/01/19 13:58:23;;;;;;;2.17;1.98;;;22.70;73.20;;;;;;6229579;28;89186;-73
2023/01/19 14:01:28;;;;;;;2.10;1.90;;;22.70;73.20;;;;;;6225447;28;89045;-73
2023/01/19 14:04:32;;;;;;;2.03;1.88;;;22.70;73.20;;;;;;6230103;28;89045;-72
2023/01/19 14:07:34;;;;;;;1.92;1.70;;;22.70;73.20;;;;;;6230194;28;89122;-73
2023/01/19 14:10:38;;;;;;;2.22;1.88;;;22.70;73.20;;;;;;6229085;28;89062;-73
2023/01/19 14:13:44;;;;;;;2.17;1.92;;;22.70;73.20;;;;;;6229760;28;88326;-73
2023/01/19 14:16:46;;;;;;;2.10;1.90;;;22.70;73.20;;;;;;6217945;28;89177;-73
2023/01/19 14:19:49;;;;;;;2.10;1.90;;;22.70;73.20;;;;;;6229862;28;89101;-73
2023/01/19 14:22:51;;;;;;;2.05;1.83;;;22.70;73.20;;;;;;6218922;28;89947;-73
2023/01/19 14:25:53;;;;;;;2.05;1.85;;;22.70;73.20;;;;;;6226516;28;89017;-73
2023/01/19 14:28:57;;;;;;;2.00;1.80;;;22.70;73.10;;;;;;6230516;28;88709;-70
2023/01/19 14:32:11;;;;;;;1.98;1.77;;;22.70;73.10;;;;;;6220837;28;88930;-73
2023/01/19 14:35:15;;;;;;;2.13;1.92;;;22.70;73.10;;;;;;6224606;28;89092;-73
2023/01/19 14:38:17;;;;;;;1.88;1.77;;;22.70;73.00;;;;;;6212208;28;87854;-73
2023/01/19 14:41:25;;;;;;;1.90;1.70;;;22.80;73.10;;;;;;6218796;28;89240;-73
2023/01/19 14:44:30;;;;;;;1.92;1.80;;;22.80;73.00;;;;;;6225642;28;88366;-73
2023/01/19 14:47:37;;;;;;;1.90;1.70;;;22.70;73.00;;;;;;6224339;28;89040;-72
2023/01/19 14:50:41;;;;;;;1.80;1.70;;;22.70;73.00;;;;;;6227937;28;89154;-73
2023/01/19 14:53:49;;;;;;;1.83;1.73;;;22.70;73.00;;;;;;6227714;28;90114;-73
2023/01/19 14:56:53;;;;;;;1.80;1.70;;;22.70;72.90;;;;;;6218337;28;89053;-73
2023/01/19 14:59:57;;;;;;;1.80;1.70;;;22.80;73.00;;;;;;6225854;28;89026;-73
2023/01/19 15:02:59;;;;;;;1.80;1.70;;;22.70;72.90;;;;;;6229172;28;89192;-73
2023/01/19 15:06:01;;;;;;;1.83;1.67;;;22.80;73.00;;;;;;6228262;28;89482;-73
2023/01/19 15:09:03;;;;;;;1.80;1.70;;;22.70;72.80;;;;;;6228600;28;89020;-73
2023/01/19 15:12:11;;;;;;;1.90;1.70;;;22.80;72.90;;;;;;6227962;28;89172;-73
2023/01/19 15:15:26;;;;;;;1.90;1.70;;;22.70;72.80;;;;;;6218087;28;88367;-72
2023/01/19 15:18:28;;;;;;;1.70;1.60;;;22.80;72.90;;;;;;6218788;28;89004;-73
2023/01/19 15:21:30;;;;;;;1.90;1.60;;;22.70;72.80;;;;;;6205972;28;89967;-72
2023/01/19 15:24:32;;;;;;;1.95;1.75;;;22.70;72.80;;;;;;6227473;28;90121;-72
2023/01/19 15:27:34;;;;;;;2.03;1.83;;;22.80;72.80;;;;;;6229468;28;89068;-73
2023/01/19 15:30:39;;;;;;;1.90;1.80;;;22.80;72.90;;;;;;6232994;28;88937;-72
2023/01/19 15:33:41;;;;;;;1.80;1.70;;;22.80;73.20;;;;;;6231462;28;89526;-73
2023/01/19 15:36:43;;;;;;;1.95;1.85;;;22.70;72.80;;;;;;6226347;28;88000;-73
2023/01/19 15:39:45;;;;;;;1.90;1.80;;;22.70;72.70;;;;;;6224537;28;88013;-72
2023/01/19 15:42:47;;;;;;;2.00;1.90;;;22.70;72.70;;;;;;6224042;28;88980;-72
2023/01/19 15:45:56;;;;;;;1.90;1.67;;;22.80;72.80;;;;;;6231219;28;88494;-73
2023/01/19 15:48:59;;;;;;;2.05;1.88;;;22.80;72.80;;;;;;6210915;28;89108;-73
2023/01/19 15:52:01;;;;;;;1.90;1.70;;;22.80;72.70;;;;;;6232252;28;89073;-73
2023/01/19 15:55:03;;;;;;;1.60;1.50;;;22.80;72.70;;;;;;6232557;28;90153;-73
2023/01/19 15:58:05;;;;;;;1.73;1.60;;;22.80;72.70;;;;;;6226987;28;89265;-73
2023/01/19 16:01:13;;;;;;;1.70;1.60;;;22.80;72.70;;;;;;6223964;28;87973;-73
2023/01/19 16:04:15;;;;;;;1.85;1.75;;;22.80;72.70;;;;;;6231976;28;89581;-72
2023/01/19 16:07:17;;;;;;;2.33;2.00;;;22.80;72.70;;;;;;6230078;28;89040;-72
2023/01/19 16:10:19;;;;;;;2.05;1.85;;;22.80;72.70;;;;;;6219830;28;88966;-72
2023/01/19 16:13:21;;;;;;;1.73;1.63;;;22.80;72.70;;;;;;6232894;28;89141;-73
2023/01/19 16:16:26;;;;;;;1.70;1.60;;;22.80;72.70;;;;;;6232508;28;87206;-73